Takamatsu Airport
RJOT : now visible

Airfield :











YOU CAN JOIN US ON...

 
LOGIN :

Register | Disclaimer

   EN    FR    IT 

 









Legend :    VFR   Marginal VFR   IFR   Intensive IFR   Very Intensive IFR
Visi :
Ceiling :
>= 8 km
>= 3000ft
5 to 8 km
1000 to 3000 ft
1500m to 5 km
500 to 1000 ft
800 to 1500m
200 to 500 ft
< 800m
< 200 ft
Symbols :   Thunderstorms  Fog  Heavy snow  Heavy precipitations  Wind > 20 kt







- Airport Elevation : 607 ft
- IATA code : TAK


RJOT - Takamatsu

CURRENT METAR :
  • 190500Z 10003KT 4000 R26/2000N -RA BR FEW002 SCT015 BKN100 25/25 Q1010

EXPIRED METARs :
  • 190400Z 26004KT 5000 -RA BR FEW002 SCT015 BKN080 25/24 Q1010

TAF TAF RJOT
Valid from the 19 at 06:00 until the 20 at 12:00 UTC


190514Z 1906/2012 15006KT 7000 FEW002 SCT010 BKN020
TEMPO 1906/1908 2000 SHRA BR BCFG FEW000 SCT005 BKN008
TEMPO 1909/1913 3000 BR
BECMG 2000/2003 28006KT
BECMG 2006/2009 07006KT
No reported NOTAMs for that airfield.



MET'MAP, your aeronautical weather chart ! - Copyright ORBIFLY December 2007 - Disclaimer

ORBIFLY MET'MAP TEAM :

Programming & Development : Alexandra Zaïnal
Concept & Development : Baudouin d'Aumeries
Co-Development & Prog : Marc-Olivier Méhu
Technical & hardware support : Manuel Goepfert

Contact : metmap@orbifly.com




SOURCES & CREDITS :

   NOAA       Earth
Advisory